Weather History for KFVE - November, 2012

Change the Weather History Date:

Sunday, November 4, 2012

  Actual Average Record
Temperature  
Mean Temperature 34 °F 35 °F  
Max Temperature 38 °F 41 °F - ()
Min Temperature 29 °F 29 °F - ()
Degree Days  
Heating Degree Days 31    
Month to date heating degree days 90  
Since 1 July heating degree days 1053  
Cooling Degree Days 0    
Month to date cooling degree days 0  
Year to date cooling degree days 203  
Moisture  
Dew Point 30 °F    
Average Humidity 87    
Maximum Humidity 100    
Minimum Humidity 75    
Precipitation  
Precipitation 0.01 in 0.10 in - ()
Month to date precipitation 0.15 0.37  
Year to date precipitation 29.81 28.49  
Sea Level Pressure  
Sea Level Pressure 29.73 in    
Wind  
Wind Speed 12 mph (NW)    
Max Wind Speed 22 mph    
Max Gust Speed 30 mph    
Visibility 7 miles    
Events Rain , Snow    
T = Trace of Precipitation, MM = Missing Value Source: NWS Daily Summary

Daily Weather History Graph

Daily Weather History Graph

Search for Another Location

Airport or City:

Trip Planner

Search our weather history database for the weather conditions in past years. The results will help you decide how hot, cold, wet, or windy it might be!

Date:

Astronomy

Nov. 04, 2012 Rise Set
Actual Time 6:21 AM EST 4:11 PM EST
Civil Twilight 5:49 AM EST 4:43 PM EST
Nautical Twilight 5:12 AM EST 5:19 PM EST
Astronomical Twilight 4:37 AM EST 5:55 PM EST
Moon 8:42 PM EST (11/4) 11:07 AM EST (11/4)
Length of Visible Light 10h 54m
Length of Day
9h 49m
Waning Gibbous, 72% of the Moon is Illuminated
Nov 4
Waning Gibbous
Nov 6
Last Quarter
Nov 13
New
Nov 20
First Quarter
Nov 28
Full

Hourly Weather History & Observations

Time (EST) Temp. Windchill Dew Point Humidity Pressure Visibility Wind Dir Wind Speed Gust Speed Precip Events Conditions
12:53 AM 37.0 °F 28.1 °F 35.1 °F 93% 29.61 in 10.0 mi NW 15.0 mph 19.6 mph 0.00 in   Overcast
1:53 AM 37.0 °F 29.3 °F 34.0 °F 89% 29.61 in 10.0 mi NW 11.5 mph 23.0 mph 0.00 in Rain Light Rain
1:01 AM 37.4 °F 30.8 °F 33.8 °F 87% 29.60 in 10.0 mi NW 9.2 mph - 0.00 in   Overcast
1:09 AM 37.4 °F 30.8 °F 33.8 °F 87% 29.59 in 10.0 mi NW 9.2 mph 19.6 mph 0.00 in   Overcast
1:25 AM 37.4 °F 30.8 °F 33.8 °F 87% 29.60 in 10.0 mi NW 9.2 mph 24.2 mph 0.00 in   Overcast
1:53 AM 37.0 °F 29.3 °F 33.1 °F 86% 29.62 in 10.0 mi NW 11.5 mph 21.9 mph 0.00 in   Overcast
2:08 AM 37.4 °F 29.8 °F 33.8 °F 87% 29.60 in 10.0 mi NW 11.5 mph - N/A   Mostly Cloudy
2:53 AM 37.0 °F 29.8 °F 34.0 °F 89% 29.62 in 10.0 mi NW 10.4 mph 19.6 mph N/A   Overcast
3:05 AM 37.4 °F 27.8 °F 33.8 °F 87% 29.61 in 10.0 mi NW 17.3 mph 25.3 mph 0.00 in Rain Light Rain
3:18 AM 37.4 °F 28.5 °F 33.8 °F 87% 29.61 in 10.0 mi NW 15.0 mph 24.2 mph 0.00 in   Overcast
3:53 AM 37.0 °F 28.5 °F 33.1 °F 86% 29.63 in 10.0 mi NNW 13.8 mph 23.0 mph 0.00 in   Overcast
4:53 AM 36.0 °F 27.5 °F 33.1 °F 89% 29.65 in 10.0 mi NW 12.7 mph - 0.00 in Rain Light Rain
5:06 AM 35.6 °F 27.1 °F 33.8 °F 93% 29.63 in 10.0 mi NW 12.7 mph - 0.00 in   Overcast
5:53 AM 36.0 °F 27.1 °F 32.0 °F 86% 29.66 in 10.0 mi NW 13.8 mph 20.7 mph 0.00 in   Overcast
6:53 AM 36.0 °F 27.1 °F 32.0 °F 86% 29.68 in 10.0 mi NW 13.8 mph 18.4 mph N/A   Overcast
7:53 AM 36.0 °F 27.5 °F 30.9 °F 82% 29.69 in 10.0 mi NW 12.7 mph 25.3 mph N/A   Overcast
8:11 AM 35.6 °F 25.9 °F 30.2 °F 81% 29.68 in 10.0 mi NW 16.1 mph 21.9 mph N/A   Overcast
8:53 AM 37.0 °F 29.8 °F 30.9 °F 79% 29.71 in 10.0 mi NW 10.4 mph 24.2 mph N/A   Overcast
9:53 AM 37.0 °F 27.7 °F 30.0 °F 76% 29.72 in 10.0 mi NNW 16.1 mph 27.6 mph N/A   Overcast
10:09 AM 37.4 °F 28.2 °F 30.2 °F 75% 29.70 in 10.0 mi NW 16.1 mph 26.5 mph N/A   Overcast
10:21 AM 35.6 °F 25.2 °F 30.2 °F 81% 29.71 in 10.0 mi NW 18.4 mph 25.3 mph N/A   Overcast
10:53 AM 37.0 °F 27.4 °F 30.0 °F 76% 29.73 in 10.0 mi NNW 17.3 mph 27.6 mph N/A   Overcast
11:53 AM 37.0 °F 28.9 °F 30.0 °F 76% 29.73 in 10.0 mi NNW 12.7 mph 23.0 mph 0.00 in   Overcast
12:11 PM 37.4 °F 27.8 °F 32.0 °F 81% 29.70 in 9.0 mi NW 17.3 mph 23.0 mph 0.00 in   Overcast
12:28 PM 35.6 °F 24.5 °F 30.2 °F 81% 29.71 in 4.0 mi NNW 20.7 mph 25.3 mph 0.00 in Snow Light Snow
12:53 PM 36.0 °F 27.1 °F 30.9 °F 82% 29.73 in 10.0 mi NW 13.8 mph 24.2 mph 0.00 in   Overcast
1:49 PM 35.6 °F 25.9 °F 30.2 °F 81% 29.72 in 6.0 mi NW 16.1 mph 21.9 mph 0.00 in Snow Light Snow
1:53 PM 36.0 °F 27.1 °F 30.0 °F 79% 29.74 in 8.0 mi NW 13.8 mph - 0.00 in Snow Light Snow
2:42 PM 33.8 °F 24.8 °F 30.2 °F 87% 29.74 in 2.5 mi NW 12.7 mph - 0.00 in Snow Light Snow
2:47 PM 33.8 °F 24.8 °F 30.2 °F 87% 29.74 in 1.8 mi NW 12.7 mph - 0.00 in Snow Light Snow
2:53 PM 33.1 °F 23.0 °F 30.0 °F 89% 29.77 in 2.5 mi NW 15.0 mph 23.0 mph 0.00 in Snow Light Snow
2:56 PM 33.8 °F 23.5 °F 30.2 °F 87% 29.75 in 1.5 mi NW 16.1 mph 23.0 mph 0.00 in Snow Light Snow
3:01 PM 33.8 °F 23.9 °F 30.2 °F 87% 29.75 in 1.2 mi NW 15.0 mph 23.0 mph 0.00 in Snow Light Snow
3:06 PM 33.8 °F 24.3 °F 30.2 °F 87% 29.75 in 1.8 mi NW 13.8 mph 23.0 mph 0.00 in Snow Light Snow
3:08 PM 33.8 °F 25.8 °F 30.2 °F 87% 29.75 in 3.0 mi NW 10.4 mph 20.7 mph 0.00 in Snow Light Snow
3:19 PM 33.8 °F 25.3 °F 28.4 °F 81% 29.76 in 10.0 mi NW 11.5 mph 19.6 mph 0.00 in   Overcast
3:53 PM 33.1 °F 26.1 °F 28.9 °F 85% 29.79 in 10.0 mi NW 8.1 mph 18.4 mph 0.00 in   Overcast
4:53 PM 32.0 °F 22.5 °F 28.9 °F 88% 29.80 in 3.0 mi NNW 12.7 mph 18.4 mph 0.00 in Snow Light Snow
5:05 PM 32.0 °F 23.0 °F 28.4 °F 87% 29.78 in 5.0 mi NW 11.5 mph - 0.00 in Snow Light Snow
5:10 PM 32.0 °F 22.1 °F 28.4 °F 87% 29.78 in 1.8 mi NW 13.8 mph 19.6 mph 0.00 in Snow Light Snow
5:13 PM 32.0 °F 22.5 °F 28.4 °F 87% 29.78 in 1.2 mi NW 12.7 mph - 0.00 in Snow Light Snow
5:18 PM 30.2 °F 20.2 °F 30.2 °F 100% 29.78 in 1.8 mi NW 12.7 mph - 0.00 in Snow Light Snow
5:26 PM 30.2 °F 19.8 °F 30.2 °F 100% 29.78 in 1.2 mi NW 13.8 mph - 0.01 in Snow Light Snow
5:44 PM 30.2 °F 21.3 °F 30.2 °F 100% 29.79 in 1.8 mi NW 10.4 mph - 0.01 in Snow Light Snow
5:47 PM 30.2 °F 20.8 °F 30.2 °F 100% 29.79 in 2.0 mi NW 11.5 mph - 0.01 in Snow Light Snow
5:53 PM 30.9 °F 21.2 °F 30.0 °F 96% 29.81 in 2.5 mi NW 12.7 mph - 0.01 in Snow Light Snow
6:01 PM 30.2 °F 21.3 °F 28.4 °F 93% 29.79 in 4.0 mi NW 10.4 mph - 0.00 in Snow Light Snow
6:24 PM 30.2 °F 21.9 °F 30.2 °F 100% 29.79 in 2.0 mi NW 9.2 mph - 0.00 in Snow Light Snow
6:26 PM 30.2 °F 21.3 °F 30.2 °F 100% 29.79 in 1.5 mi NW 10.4 mph - 0.00 in Snow Light Snow
6:34 PM 30.2 °F 18.9 °F 28.4 °F 93% 29.80 in 1.2 mi NW 16.1 mph 23.0 mph 0.00 in Snow Light Snow
6:38 PM 30.2 °F 19.8 °F 28.4 °F 93% 29.80 in 1.5 mi NNW 13.8 mph 23.0 mph 0.00 in Snow Light Snow
6:41 PM 30.2 °F 20.8 °F 28.4 °F 93% 29.80 in 2.0 mi NW 11.5 mph 20.7 mph 0.00 in Snow Light Snow
6:49 PM 30.2 °F 20.2 °F 28.4 °F 93% 29.80 in 5.0 mi NNW 12.7 mph - 0.00 in Snow Light Snow
6:53 PM 30.9 °F 22.8 °F 28.9 °F 92% 29.83 in 5.0 mi NNW 9.2 mph - 0.00 in Snow Light Snow
7:15 PM 30.2 °F 20.8 °F 28.4 °F 93% 29.81 in 10.0 mi NW 11.5 mph - 0.00 in   Overcast
7:48 PM 30.2 °F 20.2 °F 26.6 °F 86% 29.82 in 10.0 mi NW 12.7 mph - 0.00 in   Overcast
7:53 PM 30.0 °F 20.5 °F 26.1 °F 85% 29.85 in 10.0 mi NW 11.5 mph - 0.00 in   Overcast
8:48 PM 30.2 °F 21.9 °F 24.8 °F 80% 29.83 in 10.0 mi NW 9.2 mph - N/A   Overcast
8:53 PM 30.0 °F 20.5 °F 25.0 °F 82% 29.86 in 10.0 mi NW 11.5 mph - N/A   Overcast
9:53 PM 30.0 °F 20.5 °F 23.0 °F 75% 29.86 in 10.0 mi NW 11.5 mph - N/A   Overcast
10:53 PM 28.9 °F 19.2 °F 21.9 °F 75% 29.86 in 10.0 mi NNW 11.5 mph - N/A   Overcast